Clarksburg, New Jersey
Current Conditions -  °F | °C
As of 11:33 PM on Monday 22 Dec 2014 (Local Time) from KWRI Reporting Station
Overcast Overcast  
Wind Chill: 45°   Ceiling: 6000
Heat Index: 45°   Visibility: 10mi
Dew Point: 45°   Wind: 3mph
Humidity: 100%   Direction: 40°NE
Pressure: 30.09"   Gusts: NA
Location:  40.19°N, 74.44°W
Report Text: KWRI 230433Z AUTO 04003KT 10SM SCT003 OVC060 07/07 A3009 RMK AO2
Loading
Personal Weather Stations






























Interactive Weather Map New forecast layout! Learn more

10-Day Weather Forecast

Advertisements
Track Severe Weather on mobile